sensor_id;sensor_type;location;lat;lon;timestamp;pressure;altitude;pressure_sealevel;temperature;humidity
72157;BME280;60035;52.122;5.406;2022-10-28T00:01:07;101992.81;;;13.53;94.74
72157;BME280;60035;52.122;5.406;2022-10-28T00:03:37;101986.91;;;13.49;94.71
72157;BME280;60035;52.122;5.406;2022-10-28T00:06:07;101989.66;;;13.42;94.94
72157;BME280;60035;52.122;5.406;2022-10-28T00:08:34;101993.19;;;13.38;95.42
72157;BME280;60035;52.122;5.406;2022-10-28T00:11:11;101995.81;;;13.33;95.30
72157;BME280;60035;52.122;5.406;2022-10-28T00:13:39;101997.59;;;13.29;95.26
72157;BME280;60035;52.122;5.406;2022-10-28T00:16:14;101999.47;;;13.24;95.48
72157;BME280;60035;52.122;5.406;2022-10-28T00:18:41;101990.91;;;13.22;95.44
72157;BME280;60035;52.122;5.406;2022-10-28T00:21:17;101987.53;;;13.20;95.54
72157;BME280;60035;52.122;5.406;2022-10-28T00:23:44;101982.53;;;13.14;95.52
72157;BME280;60035;52.122;5.406;2022-10-28T00:26:30;101976.56;;;13.12;95.43
72157;BME280;60035;52.122;5.406;2022-10-28T00:28:59;101965.50;;;13.08;95.29
72157;BME280;60035;52.122;5.406;2022-10-28T00:31:29;101978.38;;;13.07;95.54
72157;BME280;60035;52.122;5.406;2022-10-28T00:33:57;101968.97;;;13.06;95.73
72157;BME280;60035;52.122;5.406;2022-10-28T00:36:27;101971.59;;;13.04;95.83
72157;BME280;60035;52.122;5.406;2022-10-28T00:38:55;101968.22;;;13.02;95.96
72157;BME280;60035;52.122;5.406;2022-10-28T00:41:29;101970.78;;;13.02;95.95
72157;BME280;60035;52.122;5.406;2022-10-28T00:44:01;101972.47;;;13.03;96.24
72157;BME280;60035;52.122;5.406;2022-10-28T00:46:43;101968.22;;;13.02;96.57
72157;BME280;60035;52.122;5.406;2022-10-28T00:49:14;101963.06;;;13.02;96.69
72157;BME280;60035;52.122;5.406;2022-10-28T00:51:43;101964.03;;;12.98;96.65
72157;BME280;60035;52.122;5.406;2022-10-28T00:54:11;101957.22;;;12.95;96.55
72157;BME280;60035;52.122;5.406;2022-10-28T00:56:42;101946.94;;;12.95;96.47
72157;BME280;60035;52.122;5.406;2022-10-28T00:59:17;101948.72;;;12.92;96.69
72157;BME280;60035;52.122;5.406;2022-10-28T01:01:44;101946.19;;;12.90;96.34
72157;BME280;60035;52.122;5.406;2022-10-28T01:04:10;101943.66;;;12.87;96.22
72157;BME280;60035;52.122;5.406;2022-10-28T01:06:37;101942.00;;;12.86;96.13
72157;BME280;60035;52.122;5.406;2022-10-28T01:09:04;101936.94;;;12.81;96.04
72157;BME280;60035;52.122;5.406;2022-10-28T01:11:53;101937.00;;;12.78;96.05
72157;BME280;60035;52.122;5.406;2022-10-28T01:26:11;101935.50;;;12.68;96.16
72157;BME280;60035;52.122;5.406;2022-10-28T01:28:50;101942.41;;;12.64;95.90
72157;BME280;60035;52.122;5.406;2022-10-28T01:34:10;101926.25;;;12.61;96.01
72157;BME280;60035;52.122;5.406;2022-10-28T01:40:01;101925.50;;;12.56;96.02
72157;BME280;60035;52.122;5.406;2022-10-28T01:42:31;101925.56;;;12.51;96.14
72157;BME280;60035;52.122;5.406;2022-10-28T01:45:25;101920.56;;;12.45;95.53
72157;BME280;60035;52.122;5.406;2022-10-28T01:48:16;101924.97;;;12.38;95.55
72157;BME280;60035;52.122;5.406;2022-10-28T01:50:52;101926.69;;;12.38;95.57
72157;BME280;60035;52.122;5.406;2022-10-28T01:53:24;101927.56;;;12.37;95.64
72157;BME280;60035;52.122;5.406;2022-10-28T01:55:54;101920.72;;;12.36;95.87
72157;BME280;60035;52.122;5.406;2022-10-28T01:58:26;101913.16;;;12.29;95.85
72157;BME280;60035;52.122;5.406;2022-10-28T02:00:54;101915.00;;;12.23;95.86
72157;BME280;60035;52.122;5.406;2022-10-28T02:03:21;101911.56;;;12.24;95.97
72157;BME280;60035;52.122;5.406;2022-10-28T02:05:51;101903.91;;;12.21;96.06
72157;BME280;60035;52.122;5.406;2022-10-28T02:21:45;101905.00;;;12.07;96.45
72157;BME280;60035;52.122;5.406;2022-10-28T02:24:29;101898.31;;;12.00;96.69
72157;BME280;60035;52.122;5.406;2022-10-28T02:27:11;101894.91;;;11.98;96.74
72157;BME280;60035;52.122;5.406;2022-10-28T02:29:52;101894.13;;;11.93;96.41
72157;BME280;60035;52.122;5.406;2022-10-28T02:32:24;101897.59;;;11.90;96.44
72157;BME280;60035;52.122;5.406;2022-10-28T02:34:54;101900.22;;;11.87;96.52
72157;BME280;60035;52.122;5.406;2022-10-28T02:37:31;101896.84;;;11.83;96.65
72157;BME280;60035;52.122;5.406;2022-10-28T02:40:05;101892.66;;;11.79;96.89
72157;BME280;60035;52.122;5.406;2022-10-28T02:42:40;101879.84;;;11.78;96.99
72157;BME280;60035;52.122;5.406;2022-10-28T02:45:16;101883.25;;;11.78;96.95
72157;BME280;60035;52.122;5.406;2022-10-28T02:47:49;101884.13;;;11.77;96.95
72157;BME280;60035;52.122;5.406;2022-10-28T02:50:20;101885.00;;;11.76;96.90
72157;BME280;60035;52.122;5.406;2022-10-28T02:52:49;101881.59;;;11.76;97.08
72157;BME280;60035;52.122;5.406;2022-10-28T02:55:18;101885.88;;;11.75;97.08
72157;BME280;60035;52.122;5.406;2022-10-28T02:57:46;101889.31;;;11.74;97.05
72157;BME280;60035;52.122;5.406;2022-10-28T03:00:17;101892.84;;;11.69;96.96
72157;BME280;60035;52.122;5.406;2022-10-28T03:02:45;101887.75;;;11.67;96.75
72157;BME280;60035;52.122;5.406;2022-10-28T03:05:11;101879.19;;;11.66;97.15
72157;BME280;60035;52.122;5.406;2022-10-28T03:07:39;101880.06;;;11.64;97.13
72157;BME280;60035;52.122;5.406;2022-10-28T03:10:06;101879.28;;;11.62;96.88
72157;BME280;60035;52.122;5.406;2022-10-28T03:12:32;101879.28;;;11.62;97.09
72157;BME280;60035;52.122;5.406;2022-10-28T03:14:59;101875.03;;;11.59;97.02
72157;BME280;60035;52.122;5.406;2022-10-28T03:17:26;101881.06;;;11.57;96.82
72157;BME280;60035;52.122;5.406;2022-10-28T03:19:53;101882.75;;;11.59;96.88
72157;BME280;60035;52.122;5.406;2022-10-28T03:22:19;101875.91;;;11.58;96.66
72157;BME280;60035;52.122;5.406;2022-10-28T03:24:46;101878.50;;;11.57;96.44
72157;BME280;60035;52.122;5.406;2022-10-28T03:27:12;101878.47;;;11.58;96.27
72157;BME280;60035;52.122;5.406;2022-10-28T03:29:38;101885.31;;;11.59;96.40
72157;BME280;60035;52.122;5.406;2022-10-28T03:32:11;101881.88;;;11.59;96.49
72157;BME280;60035;52.122;5.406;2022-10-28T03:34:37;101882.78;;;11.56;96.47
72157;BME280;60035;52.122;5.406;2022-10-28T03:37:04;101873.41;;;11.55;96.67
72157;BME280;60035;52.122;5.406;2022-10-28T03:39:30;101876.00;;;11.54;96.55
72157;BME280;60035;52.122;5.406;2022-10-28T03:41:56;101874.34;;;11.51;96.61
72157;BME280;60035;52.122;5.406;2022-10-28T03:44:23;101866.63;;;11.49;96.89
72157;BME280;60035;52.122;5.406;2022-10-28T03:46:49;101859.84;;;11.48;96.94
72157;BME280;60035;52.122;5.406;2022-10-28T03:49:16;101858.09;;;11.49;97.08
72157;BME280;60035;52.122;5.406;2022-10-28T03:51:43;101852.09;;;11.52;97.25
72157;BME280;60035;52.122;5.406;2022-10-28T03:54:09;101852.16;;;11.48;96.86
72157;BME280;60035;52.122;5.406;2022-10-28T03:56:35;101848.75;;;11.46;97.00
72157;BME280;60035;52.122;5.406;2022-10-28T03:59:08;101850.47;;;11.46;96.96
72157;BME280;60035;52.122;5.406;2022-10-28T04:01:35;101839.41;;;11.42;96.86
72157;BME280;60035;52.122;5.406;2022-10-28T04:04:02;101844.59;;;11.39;96.89
72157;BME280;60035;52.122;5.406;2022-10-28T04:06:28;101841.19;;;11.39;97.13
72157;BME280;60035;52.122;5.406;2022-10-28T04:08:55;101845.38;;;11.43;97.09
72157;BME280;60035;52.122;5.406;2022-10-28T04:11:21;101850.41;;;11.49;97.28
72157;BME280;60035;52.122;5.406;2022-10-28T04:13:48;101846.00;;;11.57;97.76
72157;BME280;60035;52.122;5.406;2022-10-28T04:16:14;101844.09;;;11.69;98.35
72157;BME280;60035;52.122;5.406;2022-10-28T04:18:40;101844.75;;;11.78;98.67
72157;BME280;60035;52.122;5.406;2022-10-28T04:21:07;101843.78;;;11.86;99.24
72157;BME280;60035;52.122;5.406;2022-10-28T04:23:33;101844.56;;;11.91;99.57
72157;BME280;60035;52.122;5.406;2022-10-28T04:26:00;101849.63;;;11.95;99.76
72157;BME280;60035;52.122;5.406;2022-10-28T04:28:26;101858.16;;;11.97;99.89
72157;BME280;60035;52.122;5.406;2022-10-28T04:30:52;101857.34;;;11.92;99.83
72157;BME280;60035;52.122;5.406;2022-10-28T04:33:19;101860.00;;;11.88;99.70
72157;BME280;60035;52.122;5.406;2022-10-28T04:35:45;101866.03;;;11.85;99.71
72157;BME280;60035;52.122;5.406;2022-10-28T04:38:12;101854.19;;;11.78;99.56
72157;BME280;60035;52.122;5.406;2022-10-28T04:40:39;101855.97;;;11.74;99.25
72157;BME280;60035;52.122;5.406;2022-10-28T04:43:06;101861.16;;;11.71;99.06
72157;BME280;60035;52.122;5.406;2022-10-28T04:45:35;101847.53;;;11.67;99.01
72157;BME280;60035;52.122;5.406;2022-10-28T04:48:02;101859.41;;;11.72;99.05
72157;BME280;60035;52.122;5.406;2022-10-28T04:50:29;101844.91;;;11.71;98.72
72157;BME280;60035;52.122;5.406;2022-10-28T04:52:55;101853.50;;;11.70;98.71
72157;BME280;60035;52.122;5.406;2022-10-28T04:55:22;101844.94;;;11.69;99.05
72157;BME280;60035;52.122;5.406;2022-10-28T04:57:58;101839.72;;;11.74;98.98
72157;BME280;60035;52.122;5.406;2022-10-28T05:00:27;101834.50;;;11.78;99.15
72157;BME280;60035;52.122;5.406;2022-10-28T05:02:53;101831.03;;;11.81;99.41
72157;BME280;60035;52.122;5.406;2022-10-28T05:05:21;101836.13;;;11.82;99.39
72157;BME280;60035;52.122;5.406;2022-10-28T05:07:47;101834.31;;;11.88;99.52
72157;BME280;60035;52.122;5.406;2022-10-28T05:10:14;101843.72;;;11.89;99.76
72157;BME280;60035;52.122;5.406;2022-10-28T05:12:41;101847.22;;;11.84;99.71
72157;BME280;60035;52.122;5.406;2022-10-28T05:15:09;101845.44;;;11.88;100.00
72157;BME280;60035;52.122;5.406;2022-10-28T05:17:39;101838.53;;;11.92;100.00
72157;BME280;60035;52.122;5.406;2022-10-28T05:20:07;101834.22;;;11.95;100.00
72157;BME280;60035;52.122;5.406;2022-10-28T05:22:33;101826.44;;;12.00;100.00
72157;BME280;60035;52.122;5.406;2022-10-28T05:25:00;101821.22;;;12.03;100.00
72157;BME280;60035;52.122;5.406;2022-10-28T05:27:26;101815.09;;;12.10;100.00
72157;BME280;60035;52.122;5.406;2022-10-28T05:29:53;101823.50;;;12.19;100.00
72157;BME280;60035;52.122;5.406;2022-10-28T05:32:19;101825.09;;;12.24;100.00
72157;BME280;60035;52.122;5.406;2022-10-28T05:34:46;101822.41;;;12.29;100.00
72157;BME280;60035;52.122;5.406;2022-10-28T05:37:12;101827.50;;;12.32;100.00
72157;BME280;60035;52.122;5.406;2022-10-28T05:39:38;101823.19;;;12.32;100.00
72157;BME280;60035;52.122;5.406;2022-10-28T05:42:05;101830.03;;;12.33;100.00
72157;BME280;60035;52.122;5.406;2022-10-28T05:44:31;101816.31;;;12.35;100.00
72157;BME280;60035;52.122;5.406;2022-10-28T05:46:57;101824.84;;;12.35;100.00
72157;BME280;60035;52.122;5.406;2022-10-28T05:49:25;101824.03;;;12.35;100.00
72157;BME280;60035;52.122;5.406;2022-10-28T05:51:51;101825.72;;;12.34;100.00
72157;BME280;60035;52.122;5.406;2022-10-28T05:54:19;101825.72;;;12.34;100.00
72157;BME280;60035;52.122;5.406;2022-10-28T05:56:46;101820.66;;;12.31;100.00
72157;BME280;60035;52.122;5.406;2022-10-28T05:59:13;101818.13;;;12.29;100.00
72157;BME280;60035;52.122;5.406;2022-10-28T08:12:46;101868.16;;;15.14;94.83
72157;BME280;60035;52.122;5.406;2022-10-28T08:46:53;101868.03;;;16.66;89.03
72157;BME280;60035;52.122;5.406;2022-10-28T08:49:22;101868.78;;;16.70;88.73
72157;BME280;60035;52.122;5.406;2022-10-28T08:51:56;101875.56;;;16.72;88.29
72157;BME280;60035;52.122;5.406;2022-10-28T08:54:30;101873.69;;;16.76;87.95
72157;BME280;60035;52.122;5.406;2022-10-28T08:57:00;101863.19;;;16.80;87.37
72157;BME280;60035;52.122;5.406;2022-10-28T08:59:36;101856.00;;;16.87;86.87
72157;BME280;60035;52.122;5.406;2022-10-28T09:02:13;101853.16;;;16.95;87.15
72157;BME280;60035;52.122;5.406;2022-10-28T09:04:45;101857.22;;;17.01;86.59
72157;BME280;60035;52.122;5.406;2022-10-28T09:07:21;101862.16;;;17.07;86.71
72157;BME280;60035;52.122;5.406;2022-10-28T09:09:51;101861.84;;;17.14;85.96
72157;BME280;60035;52.122;5.406;2022-10-28T09:17:57;101862.13;;;17.49;84.37
72157;BME280;60035;52.122;5.406;2022-10-28T09:20:56;101858.44;;;17.55;83.76
72157;BME280;60035;52.122;5.406;2022-10-28T09:23:31;101861.66;;;17.60;83.23
72157;BME280;60035;52.122;5.406;2022-10-28T09:31:48;101851.38;;;17.79;82.92
72157;BME280;60035;52.122;5.406;2022-10-28T09:34:53;101848.28;;;17.90;82.98
72157;BME280;60035;52.122;5.406;2022-10-28T09:37:27;101853.38;;;17.93;82.13
72157;BME280;60035;52.122;5.406;2022-10-28T09:39:59;101867.22;;;17.92;82.00
72157;BME280;60035;52.122;5.406;2022-10-28T09:42:30;101868.00;;;17.94;82.07
72157;BME280;60035;52.122;5.406;2022-10-28T09:45:05;101868.13;;;17.91;81.99
72157;BME280;60035;52.122;5.406;2022-10-28T09:47:46;101853.59;;;17.87;81.82
72157;BME280;60035;52.122;5.406;2022-10-28T09:50:18;101862.22;;;17.88;82.14
72157;BME280;60035;52.122;5.406;2022-10-28T09:53:08;101865.53;;;17.91;82.29
72157;BME280;60035;52.122;5.406;2022-10-28T09:55:37;101855.22;;;17.90;82.21
72157;BME280;60035;52.122;5.406;2022-10-28T09:58:04;101850.97;;;17.89;82.34
72157;BME280;60035;52.122;5.406;2022-10-28T10:00:31;101850.44;;;18.01;82.11
72157;BME280;60035;52.122;5.406;2022-10-28T10:02:57;101860.16;;;18.15;81.72
72157;BME280;60035;52.122;5.406;2022-10-28T10:05:25;101864.81;;;18.27;81.35
72157;BME280;60035;52.122;5.406;2022-10-28T10:07:54;101863.59;;;18.35;80.64
72157;BME280;60035;52.122;5.406;2022-10-28T10:10:45;101862.50;;;18.40;80.96
72157;BME280;60035;52.122;5.406;2022-10-28T10:13:16;101864.78;;;18.46;80.54
72157;BME280;60035;52.122;5.406;2022-10-28T10:15:56;101858.34;;;18.55;80.08
72157;BME280;60035;52.122;5.406;2022-10-28T10:18:28;101866.53;;;18.65;80.24
72157;BME280;60035;52.122;5.406;2022-10-28T10:20:55;101850.44;;;18.76;80.36
72157;BME280;60035;52.122;5.406;2022-10-28T10:23:29;101853.13;;;18.93;79.70
72157;BME280;60035;52.122;5.406;2022-10-28T10:26:05;101844.72;;;19.06;78.77
72157;BME280;60035;52.122;5.406;2022-10-28T10:28:41;101832.34;;;19.11;79.00
72157;BME280;60035;52.122;5.406;2022-10-28T10:31:17;101845.34;;;19.11;78.27
72157;BME280;60035;52.122;5.406;2022-10-28T10:33:48;101840.69;;;19.18;78.24
72157;BME280;60035;52.122;5.406;2022-10-28T10:36:18;101836.00;;;19.24;78.23
72157;BME280;60035;52.122;5.406;2022-10-28T10:38:56;101841.34;;;19.39;78.24
72157;BME280;60035;52.122;5.406;2022-10-28T10:41:37;101844.09;;;19.53;77.87
72157;BME280;60035;52.122;5.406;2022-10-28T10:44:27;101828.72;;;19.66;77.44
72157;BME280;60035;52.122;5.406;2022-10-28T10:49:32;101816.81;;;19.78;76.79
72157;BME280;60035;52.122;5.406;2022-10-28T10:54:29;101819.19;;;19.83;76.67
72157;BME280;60035;52.122;5.406;2022-10-28T10:57:14;101814.59;;;19.88;76.58
72157;BME280;60035;52.122;5.406;2022-10-28T10:59:51;101832.31;;;19.97;76.13
72157;BME280;60035;52.122;5.406;2022-10-28T11:02:32;101834.41;;;20.06;76.09
72157;BME280;60035;52.122;5.406;2022-10-28T11:05:08;101835.75;;;20.13;75.94
72157;BME280;60035;52.122;5.406;2022-10-28T11:07:37;101838.13;;;20.18;75.69
72157;BME280;60035;52.122;5.406;2022-10-28T11:10:30;101829.47;;;20.18;75.60
72157;BME280;60035;52.122;5.406;2022-10-28T11:13:02;101825.94;;;20.19;75.26
72157;BME280;60035;52.122;5.406;2022-10-28T11:15:30;101824.34;;;20.16;75.43
72157;BME280;60035;52.122;5.406;2022-10-28T11:18:17;101826.88;;;20.18;75.62
72157;BME280;60035;52.122;5.406;2022-10-28T11:20:54;101821.50;;;20.21;75.68
72157;BME280;60035;52.122;5.406;2022-10-28T11:23:47;101812.88;;;20.20;75.17
72157;BME280;60035;52.122;5.406;2022-10-28T11:26:17;101820.72;;;20.19;75.33
72157;BME280;60035;52.122;5.406;2022-10-28T11:28:49;101823.19;;;20.22;75.62
72157;BME280;60035;52.122;5.406;2022-10-28T11:37:31;101821.69;;;20.34;75.70
72157;BME280;60035;52.122;5.406;2022-10-28T11:40:07;101827.53;;;20.37;75.76
72157;BME280;60035;52.122;5.406;2022-10-28T11:43:13;101830.38;;;20.48;75.73
72157;BME280;60035;52.122;5.406;2022-10-28T11:51:30;101839.50;;;20.72;74.72
72157;BME280;60035;52.122;5.406;2022-10-28T12:02:37;101838.84;;;20.84;73.28
72157;BME280;60035;52.122;5.406;2022-10-28T12:08:10;101832.00;;;20.97;72.91
72157;BME280;60035;52.122;5.406;2022-10-28T12:10:52;101834.97;;;21.06;72.07
72157;BME280;60035;52.122;5.406;2022-10-28T12:18:46;101837.50;;;21.07;70.46
72157;BME280;60035;52.122;5.406;2022-10-28T12:21:39;101856.59;;;21.08;70.88
72157;BME280;60035;52.122;5.406;2022-10-28T12:24:13;101834.72;;;21.10;71.42
72157;BME280;60035;52.122;5.406;2022-10-28T12:26:44;101835.56;;;21.11;69.71
72157;BME280;60035;52.122;5.406;2022-10-28T12:29:32;101845.41;;;21.06;69.89
72157;BME280;60035;52.122;5.406;2022-10-28T12:34:46;101851.38;;;21.08;68.65
72157;BME280;60035;52.122;5.406;2022-10-28T12:37:21;101856.84;;;21.03;69.58
72157;BME280;60035;52.122;5.406;2022-10-28T12:40:05;101844.91;;;20.99;69.70
72157;BME280;60035;52.122;5.406;2022-10-28T12:42:36;101840.81;;;20.95;69.60
72157;BME280;60035;52.122;5.406;2022-10-28T12:45:10;101853.44;;;20.87;69.53
72157;BME280;60035;52.122;5.406;2022-10-28T12:47:44;101843.47;;;20.79;69.74
72157;BME280;60035;52.122;5.406;2022-10-28T12:50:35;101850.59;;;20.75;69.89
72157;BME280;60035;52.122;5.406;2022-10-28T12:55:41;101855.38;;;20.67;70.15
72157;BME280;60035;52.122;5.406;2022-10-28T12:58:15;101863.19;;;20.67;70.47
72157;BME280;60035;52.122;5.406;2022-10-28T13:00:45;101868.38;;;20.67;71.03
72157;BME280;60035;52.122;5.406;2022-10-28T13:03:14;101872.69;;;20.68;70.18
72157;BME280;60035;52.122;5.406;2022-10-28T13:17:22;101891.22;;;20.46;70.98
72157;BME280;60035;52.122;5.406;2022-10-28T13:20:13;101887.22;;;20.40;71.02
72157;BME280;60035;52.122;5.406;2022-10-28T13:25:40;101897.63;;;20.40;71.95
72157;BME280;60035;52.122;5.406;2022-10-28T13:28:16;101902.06;;;20.38;71.44
72157;BME280;60035;52.122;5.406;2022-10-28T13:30:54;101897.94;;;20.34;71.68
72157;BME280;60035;52.122;5.406;2022-10-28T13:33:24;101903.13;;;20.34;71.60
72157;BME280;60035;52.122;5.406;2022-10-28T13:35:53;101897.84;;;20.36;71.87
72157;BME280;60035;52.122;5.406;2022-10-28T13:38:23;101907.16;;;20.40;72.08
72157;BME280;60035;52.122;5.406;2022-10-28T13:59:55;101915.31;;;20.34;72.20
72157;BME280;60035;52.122;5.406;2022-10-28T14:02:34;101925.78;;;20.32;71.93
72157;BME280;60035;52.122;5.406;2022-10-28T14:05:07;101932.03;;;20.29;72.05
72157;BME280;60035;52.122;5.406;2022-10-28T14:07:37;101937.44;;;20.25;71.92
72157;BME280;60035;52.122;5.406;2022-10-28T14:10:18;101949.69;;;20.23;72.39
72157;BME280;60035;52.122;5.406;2022-10-28T14:13:16;101947.03;;;20.24;72.24
72157;BME280;60035;52.122;5.406;2022-10-28T14:15:47;101947.75;;;20.26;71.99
72157;BME280;60035;52.122;5.406;2022-10-28T14:21:04;101962.69;;;20.23;71.99
72157;BME280;60035;52.122;5.406;2022-10-28T14:26:04;101953.31;;;20.20;72.34
72157;BME280;60035;52.122;5.406;2022-10-28T14:44:40;101937.97;;;19.98;73.75
72157;BME280;60035;52.122;5.406;2022-10-28T14:47:29;101953.66;;;19.96;73.81
72157;BME280;60035;52.122;5.406;2022-10-28T14:50:13;101967.97;;;19.88;74.72
72157;BME280;60035;52.122;5.406;2022-10-28T14:52:42;101962.06;;;19.84;74.49
72157;BME280;60035;52.122;5.406;2022-10-28T14:55:21;101971.91;;;19.77;74.96
72157;BME280;60035;52.122;5.406;2022-10-28T14:57:49;101970.63;;;19.69;75.26
72157;BME280;60035;52.122;5.406;2022-10-28T15:00:18;101985.69;;;19.62;75.69
72157;BME280;60035;52.122;5.406;2022-10-28T15:02:45;101974.69;;;19.57;76.02
72157;BME280;60035;52.122;5.406;2022-10-28T15:05:15;101972.22;;;19.54;76.09
72157;BME280;60035;52.122;5.406;2022-10-28T15:07:42;101971.53;;;19.50;76.35
72157;BME280;60035;52.122;5.406;2022-10-28T15:10:24;101973.38;;;19.48;76.53
72157;BME280;60035;52.122;5.406;2022-10-28T15:12:52;101978.72;;;19.45;76.80
72157;BME280;60035;52.122;5.406;2022-10-28T15:17:49;101985.97;;;19.38;77.58
72157;BME280;60035;52.122;5.406;2022-10-28T15:22:49;101976.84;;;19.29;77.76
72157;BME280;60035;52.122;5.406;2022-10-28T15:25:18;101988.31;;;19.25;78.02
72157;BME280;60035;52.122;5.406;2022-10-28T15:27:49;101995.31;;;19.23;78.26
72157;BME280;60035;52.122;5.406;2022-10-28T15:32:44;102005.16;;;19.17;78.72
72157;BME280;60035;52.122;5.406;2022-10-28T15:37:53;102016.06;;;19.06;79.03
72157;BME280;60035;52.122;5.406;2022-10-28T15:40:33;102015.34;;;19.02;79.44
72157;BME280;60035;52.122;5.406;2022-10-28T15:43:00;102017.19;;;19.00;79.39
72157;BME280;60035;52.122;5.406;2022-10-28T15:45:32;102005.13;;;18.99;79.32
72157;BME280;60035;52.122;5.406;2022-10-28T15:48:12;102013.97;;;18.95;79.60
72157;BME280;60035;52.122;5.406;2022-10-28T15:50:39;102007.22;;;18.91;79.92
72157;BME280;60035;52.122;5.406;2022-10-28T15:55:40;102017.84;;;18.85;80.39
72157;BME280;60035;52.122;5.406;2022-10-28T15:58:33;102020.69;;;18.80;80.33
72157;BME280;60035;52.122;5.406;2022-10-28T16:01:01;102024.38;;;18.74;80.93
72157;BME280;60035;52.122;5.406;2022-10-28T16:03:46;102015.91;;;18.71;81.15
72157;BME280;60035;52.122;5.406;2022-10-28T16:06:38;102032.44;;;18.68;81.19
72157;BME280;60035;52.122;5.406;2022-10-28T16:09:17;102029.13;;;18.64;81.46
72157;BME280;60035;52.122;5.406;2022-10-28T16:11:49;102031.81;;;18.63;81.59
72157;BME280;60035;52.122;5.406;2022-10-28T16:14:30;102032.84;;;18.59;81.65
72157;BME280;60035;52.122;5.406;2022-10-28T16:17:20;102038.22;;;18.54;81.86
72157;BME280;60035;52.122;5.406;2022-10-28T16:20:16;102043.56;;;18.51;82.18
72157;BME280;60035;52.122;5.406;2022-10-28T16:22:44;102044.78;;;18.42;82.35
72157;BME280;60035;52.122;5.406;2022-10-28T16:25:17;102058.03;;;18.36;82.62
72157;BME280;60035;52.122;5.406;2022-10-28T16:27:44;102061.66;;;18.32;82.79
72157;BME280;60035;52.122;5.406;2022-10-28T16:30:10;102074.84;;;18.27;83.14
72157;BME280;60035;52.122;5.406;2022-10-28T16:32:47;102082.69;;;18.26;82.99
72157;BME280;60035;52.122;5.406;2022-10-28T16:35:20;102076.69;;;18.24;83.25
72157;BME280;60035;52.122;5.406;2022-10-28T16:37:50;102084.63;;;18.21;83.61
72157;BME280;60035;52.122;5.406;2022-10-28T16:40:21;102097.69;;;18.18;83.86
72157;BME280;60035;52.122;5.406;2022-10-28T16:43:14;102101.97;;;18.19;84.01
72157;BME280;60035;52.122;5.406;2022-10-28T16:45:41;102089.00;;;18.19;84.06
72157;BME280;60035;52.122;5.406;2022-10-28T16:48:10;102095.06;;;18.19;83.90
72157;BME280;60035;52.122;5.406;2022-10-28T16:50:39;102091.59;;;18.19;84.05
72157;BME280;60035;52.122;5.406;2022-10-28T16:53:10;102096.88;;;18.17;84.08
72157;BME280;60035;52.122;5.406;2022-10-28T16:55:37;102104.63;;;18.17;84.04
72157;BME280;60035;52.122;5.406;2022-10-28T16:58:03;102105.47;;;18.18;84.11
72157;BME280;60035;52.122;5.406;2022-10-28T17:00:30;102109.00;;;18.17;84.28
72157;BME280;60035;52.122;5.406;2022-10-28T17:02:56;102110.72;;;18.16;84.47
72157;BME280;60035;52.122;5.406;2022-10-28T17:05:23;102121.16;;;18.14;84.27
72157;BME280;60035;52.122;5.406;2022-10-28T17:07:49;102110.03;;;18.12;84.59
72157;BME280;60035;52.122;5.406;2022-10-28T17:10:16;102107.44;;;18.12;84.39
72157;BME280;60035;52.122;5.406;2022-10-28T17:12:43;102105.84;;;18.08;84.57
72157;BME280;60035;52.122;5.406;2022-10-28T17:15:09;102102.56;;;18.05;84.55
72157;BME280;60035;52.122;5.406;2022-10-28T17:17:36;102104.50;;;18.00;84.61
72157;BME280;60035;52.122;5.406;2022-10-28T17:20:03;102108.94;;;17.96;84.75
72157;BME280;60035;52.122;5.406;2022-10-28T17:22:29;102120.31;;;17.92;85.03
72157;BME280;60035;52.122;5.406;2022-10-28T17:24:56;102113.56;;;17.88;85.18
72157;BME280;60035;52.122;5.406;2022-10-28T17:27:22;102124.03;;;17.85;84.90
72157;BME280;60035;52.122;5.406;2022-10-28T17:29:49;102131.19;;;17.79;85.25
72157;BME280;60035;52.122;5.406;2022-10-28T17:32:15;102129.66;;;17.74;85.39
72157;BME280;60035;52.122;5.406;2022-10-28T17:34:42;102133.19;;;17.71;85.48
72157;BME280;60035;52.122;5.406;2022-10-28T17:37:08;102144.66;;;17.65;85.77
72157;BME280;60035;52.122;5.406;2022-10-28T17:39:35;102150.91;;;17.60;85.96
72157;BME280;60035;52.122;5.406;2022-10-28T17:42:03;102155.44;;;17.55;85.98
72157;BME280;60035;52.122;5.406;2022-10-28T17:44:29;102151.44;;;17.46;86.12
72157;BME280;60035;52.122;5.406;2022-10-28T17:46:56;102155.94;;;17.41;86.55
72157;BME280;60035;52.122;5.406;2022-10-28T17:49:22;102163.00;;;17.37;86.74
72157;BME280;60035;52.122;5.406;2022-10-28T17:51:49;102167.44;;;17.34;87.02
72157;BME280;60035;52.122;5.406;2022-10-28T17:54:16;102177.06;;;17.30;87.46
72157;BME280;60035;52.122;5.406;2022-10-28T17:56:42;102174.59;;;17.27;87.54
72157;BME280;60035;52.122;5.406;2022-10-28T17:59:10;102174.66;;;17.24;87.59
72157;BME280;60035;52.122;5.406;2022-10-28T18:01:36;102174.06;;;17.17;88.09
72157;BME280;60035;52.122;5.406;2022-10-28T18:04:03;102185.41;;;17.13;88.10
72157;BME280;60035;52.122;5.406;2022-10-28T18:06:31;102185.47;;;17.11;88.42
72157;BME280;60035;52.122;5.406;2022-10-28T18:08:57;102177.78;;;17.10;88.55
72157;BME280;60035;52.122;5.406;2022-10-28T18:11:24;102176.94;;;17.09;88.92
72157;BME280;60035;52.122;5.406;2022-10-28T18:13:52;102180.38;;;17.10;88.88
72157;BME280;60035;52.122;5.406;2022-10-28T18:16:23;102183.91;;;17.07;88.86
72157;BME280;60035;52.122;5.406;2022-10-28T18:18:50;102198.69;;;17.04;88.98
72157;BME280;60035;52.122;5.406;2022-10-28T18:21:18;102189.28;;;17.01;89.02
72157;BME280;60035;52.122;5.406;2022-10-28T18:23:51;102198.06;;;16.97;89.05
72157;BME280;60035;52.122;5.406;2022-10-28T18:26:19;102206.00;;;16.92;89.05